Terminal Aerodrome Forecast
Issued by NWS Twin Cities, MN

Home | Current Version | Previous Version | Graphics & Text | Print | Product List | Glossary On
Versions: 1 2 3 4 5 6 7 8 9 10 11 12 13 14 15 16 17 18 19 20 21 22 23 24 25 26 27 28 29
000
FTUS43 KMPX 300523
TAFMSP
TAF
KMSP 300523Z 3006/3112 17005KT 5SM BR BKN250
     FM300730 17005KT 4SM BR SCT003 OVC006
      TEMPO 3008/3012 2SM BR OVC003
     FM301500 19009KT P6SM BKN012
     FM301700 19011KT P6SM SKC
     FM310000 18006KT P6SM SKC=

USA.gov is the U.S. government's official web portal to all federal, state and local government web resources and services.